Time;durP1;ratioP1;P1;durP2;ratioP2;P2;SDS_P1;SDS_P2;PMS_P1;PMS_P2;Temp;Humidity;BMP_temperature;BMP_pressure;BME280_temperature;BME280_humidity;BME280_pressure;Samples;Min_cycle;Max_cycle;Signal;HPM_P1;HPM_P2
2021/10/03 08:49:16;;;;;;;6.20;5.30;;;19.20;98.30;;;;;;5228816;22;20448;-84
2021/10/03 08:51:29;;;;;;;6.87;5.40;;;19.10;98.30;;;;;;5231876;22;20422;-84
2021/10/03 08:54:00;;;;;;;6.13;5.40;;;19.10;98.30;;;;;;5227629;22;20418;-84
2021/10/03 08:56:23;;;;;;;6.40;5.63;;;19.10;98.30;;;;;;5212320;22;20465;-83
2021/10/03 08:58:27;;;;;;;5.60;5.10;;;19.10;98.30;;;;;;5237103;22;20449;-81
2021/10/03 09:00:30;;;;;;;5.83;5.33;;;19.00;98.30;;;;;;5246124;22;20444;-85
2021/10/03 09:02:53;;;;;;;6.90;5.30;;;19.00;98.30;;;;;;5245306;22;20441;-85
2021/10/03 09:05:00;;;;;;;5.80;5.20;;;19.00;98.30;;;;;;5236057;22;20406;-84
2021/10/03 09:07:09;;;;;;;6.13;5.53;;;19.00;98.30;;;;;;5233420;22;20472;-84
2021/10/03 09:09:15;;;;;;;7.10;6.40;;;19.10;98.30;;;;;;5219645;22;20425;-84
2021/10/03 09:11:18;;;;;;;6.30;5.23;;;19.10;98.30;;;;;;5227020;22;20425;-83
2021/10/03 09:13:39;;;;;;;6.30;5.67;;;19.10;98.30;;;;;;5229344;22;20433;-84
2021/10/03 09:15:44;;;;;;;5.80;5.20;;;19.10;98.30;;;;;;5222003;22;20958;-83
2021/10/03 11:08:20;;;;;;;6.17;5.57;;;19.90;98.30;;;;;;5137403;23;20446;-85
2021/10/03 11:21:26;;;;;;;6.00;5.40;;;20.20;98.30;;;;;;5010764;23;20421;-84
2021/10/03 11:48:05;;;;;;;6.00;5.30;;;20.20;98.30;;;;;;5050683;23;20478;-84
2021/10/03 12:51:55;;;;;;;5.90;4.80;;;20.70;98.30;;;;;;5148640;23;20487;-86
2021/10/03 12:54:01;;;;;;;5.27;4.77;;;20.60;98.30;;;;;;5179303;22;20420;-83
2021/10/03 12:56:05;;;;;;;5.60;5.00;;;20.60;98.30;;;;;;5255232;22;20416;-82
2021/10/03 12:58:08;;;;;;;5.00;4.50;;;20.60;98.30;;;;;;5255227;22;20419;-83
2021/10/03 13:00:13;;;;;;;6.20;4.80;;;20.70;98.30;;;;;;5254825;22;20496;-82
2021/10/03 13:02:17;;;;;;;5.93;5.10;;;20.70;98.30;;;;;;5253697;22;20459;-83
2021/10/03 13:04:43;;;;;;;5.37;4.87;;;20.70;98.30;;;;;;5245670;22;20402;-83
2021/10/03 13:06:47;;;;;;;7.73;4.50;;;20.70;98.30;;;;;;5245075;22;20450;-84
2021/10/03 13:08:52;;;;;;;5.00;4.60;;;20.70;98.30;;;;;;5253795;22;20421;-83
2021/10/03 13:10:58;;;;;;;6.60;5.27;;;20.70;98.30;;;;;;5260370;22;20420;-82
2021/10/03 13:13:01;;;;;;;5.10;4.60;;;20.70;98.30;;;;;;5254490;22;20503;-82
2021/10/03 13:15:08;;;;;;;5.73;4.67;;;20.70;98.30;;;;;;5254146;22;20420;-82
2021/10/03 13:17:12;;;;;;;7.00;5.23;;;20.70;98.30;;;;;;5253980;22;20428;-83
2021/10/03 13:19:15;;;;;;;5.90;4.53;;;20.60;98.30;;;;;;5253978;22;20485;-82
2021/10/03 13:21:18;;;;;;;5.07;4.60;;;20.60;98.30;;;;;;5253129;22;20507;-83
2021/10/03 13:23:22;;;;;;;6.53;5.23;;;20.70;98.30;;;;;;5244427;22;20455;-81
2021/10/03 13:25:25;;;;;;;5.40;4.90;;;20.70;98.30;;;;;;5252722;22;20425;-81
2021/10/03 13:27:30;;;;;;;5.23;4.73;;;20.70;98.30;;;;;;5253227;22;20441;-82
2021/10/03 13:29:33;;;;;;;5.60;4.70;;;20.80;98.30;;;;;;5255124;22;20428;-82
2021/10/03 14:31:49;;;;;;;5.13;4.43;;;21.40;98.30;;;;;;5252938;22;20423;-86
2021/10/03 14:33:56;;;;;;;5.23;4.73;;;21.30;98.30;;;;;;5252931;22;20421;-85
2021/10/03 14:36:01;;;;;;;6.57;4.37;;;21.40;98.30;;;;;;5252171;22;20424;-86
2021/10/03 14:38:05;;;;;;;5.03;4.30;;;21.30;98.30;;;;;;5243858;22;20523;-85
2021/10/03 14:40:09;;;;;;;4.93;4.43;;;21.20;98.30;;;;;;5253364;22;20444;-83
2021/10/03 14:42:12;;;;;;;5.70;4.50;;;21.10;98.30;;;;;;5252072;22;20444;-85
2021/10/03 14:44:18;;;;;;;5.30;4.80;;;21.10;98.30;;;;;;5252965;22;20443;-85
2021/10/03 14:46:22;;;;;;;5.20;4.70;;;21.00;98.30;;;;;;5253260;22;20451;-85
2021/10/03 14:48:26;;;;;;;5.47;4.97;;;20.90;98.30;;;;;;5245202;22;20504;-85
2021/10/03 14:50:34;;;;;;;5.40;5.00;;;20.80;98.30;;;;;;5252444;22;20431;-85
2021/10/03 14:52:37;;;;;;;5.13;4.50;;;20.90;98.30;;;;;;5251373;22;20437;-85
2021/10/03 14:54:42;;;;;;;5.10;4.60;;;20.90;98.30;;;;;;5250924;22;20420;-85
2021/10/03 14:56:46;;;;;;;5.93;4.60;;;20.90;98.30;;;;;;5250880;22;20445;-85
2021/10/03 14:58:53;;;;;;;4.80;4.30;;;20.90;98.30;;;;;;5251426;22;20451;-86
2021/10/03 15:00:56;;;;;;;4.50;4.10;;;20.90;98.30;;;;;;5250808;22;20429;-85
2021/10/03 15:03:01;;;;;;;4.90;4.40;;;20.90;98.30;;;;;;5250801;22;20421;-85
2021/10/03 15:05:07;;;;;;;4.93;4.40;;;20.90;98.30;;;;;;5250958;22;20472;-85
2021/10/03 15:07:16;;;;;;;5.20;4.70;;;20.90;98.30;;;;;;5251252;22;20433;-85
2021/10/03 15:09:20;;;;;;;4.60;4.20;;;20.90;98.30;;;;;;5253805;22;20440;-85
2021/10/03 15:11:23;;;;;;;5.70;5.10;;;20.90;98.30;;;;;;5254538;22;20470;-85
2021/10/03 15:13:26;;;;;;;6.87;5.20;;;20.90;98.30;;;;;;5254838;22;20917;-86
2021/10/03 15:15:30;;;;;;;5.87;5.00;;;20.80;98.30;;;;;;5256443;22;20800;-86
2021/10/03 19:39:14;;;;;;;1.90;1.70;;;16.20;98.30;;;;;;5194336;22;20517;31
2021/10/03 19:41:17;;;;;;;2.00;1.50;;;16.20;98.30;;;;;;5201976;22;20449;-81
2021/10/03 19:43:24;;;;;;;1.87;1.70;;;16.00;98.30;;;;;;5203141;22;20426;-81
2021/10/03 19:45:26;;;;;;;1.57;1.40;;;15.90;98.30;;;;;;5202404;22;20438;-81
2021/10/03 19:47:30;;;;;;;2.00;1.50;;;15.80;98.30;;;;;;5194576;22;20445;-81
2021/10/03 19:49:33;;;;;;;1.87;1.70;;;15.70;98.30;;;;;;5203015;22;20443;-81
2021/10/03 19:51:36;;;;;;;2.40;1.90;;;15.70;98.30;;;;;;5203622;22;20961;-81
2021/10/03 19:53:39;;;;;;;2.10;1.83;;;15.60;98.30;;;;;;5196895;22;20426;-81
2021/10/03 19:55:43;;;;;;;2.53;1.60;;;15.50;98.30;;;;;;5206788;22;20423;-81
2021/10/03 19:57:47;;;;;;;2.20;1.90;;;15.40;98.30;;;;;;5202114;22;20906;-81
2021/10/03 19:59:50;;;;;;;4.40;1.90;;;15.40;98.30;;;;;;5201428;22;20454;-81
2021/10/03 20:01:52;;;;;;;2.20;1.80;;;15.40;98.30;;;;;;5200825;22;20465;-81
2021/10/03 20:03:56;;;;;;;3.10;2.10;;;15.40;98.30;;;;;;5201237;22;20419;-83
2021/10/03 20:06:00;;;;;;;2.50;2.13;;;15.40;98.30;;;;;;5203963;22;20438;-81
2021/10/03 20:08:04;;;;;;;2.30;2.10;;;15.20;98.30;;;;;;5203321;22;20427;-81
2021/10/03 20:10:11;;;;;;;3.27;2.87;;;15.20;98.30;;;;;;5194443;22;20811;-82
2021/10/03 20:12:15;;;;;;;3.73;2.67;;;15.20;98.30;;;;;;5204219;22;20422;-81
2021/10/03 20:14:18;;;;;;;2.17;1.97;;;15.20;98.30;;;;;;5203172;22;20464;-81
2021/10/03 20:16:21;;;;;;;3.50;2.20;;;15.20;98.30;;;;;;5194872;22;20427;-82
2021/10/03 20:18:25;;;;;;;2.13;1.73;;;15.20;98.30;;;;;;5203188;22;20454;-81
2021/10/03 20:20:29;;;;;;;1.93;1.83;;;15.20;98.30;;;;;;5197243;22;20439;-81
2021/10/03 20:22:32;;;;;;;2.60;1.90;;;15.00;98.30;;;;;;5204229;22;20481;-81
2021/10/03 20:24:35;;;;;;;2.83;1.63;;;15.10;98.30;;;;;;5192841;22;20453;-81
2021/10/03 20:26:37;;;;;;;2.07;1.90;;;15.00;98.30;;;;;;5193377;22;20433;-81
2021/10/03 20:28:42;;;;;;;2.10;1.90;;;14.90;98.30;;;;;;5202317;22;20437;-81
2021/10/03 20:30:45;;;;;;;2.53;1.90;;;14.80;98.30;;;;;;5195344;22;20423;-80
2021/10/03 20:32:50;;;;;;;2.17;1.77;;;14.80;98.30;;;;;;5195857;22;20423;-80
2021/10/03 20:34:52;;;;;;;2.27;1.77;;;14.80;98.30;;;;;;5203997;22;20419;-81
2021/10/03 20:36:55;;;;;;;2.87;1.90;;;14.80;98.30;;;;;;5203791;22;20957;-81
2021/10/03 20:38:58;;;;;;;1.87;1.70;;;14.80;98.30;;;;;;5203394;22;20446;-81
2021/10/03 20:41:03;;;;;;;2.10;1.90;;;14.70;98.30;;;;;;5202398;22;20919;-81
2021/10/03 20:43:07;;;;;;;2.07;1.87;;;14.60;98.30;;;;;;5202009;22;20812;-81
2021/10/03 20:45:15;;;;;;;4.23;2.20;;;14.60;98.30;;;;;;5202358;22;20496;-81
2021/10/03 20:47:22;;;;;;;3.10;1.73;;;14.50;98.30;;;;;;5202260;22;20423;-81
2021/10/03 20:49:31;;;;;;;2.07;1.83;;;14.50;98.30;;;;;;5194012;22;20446;-80
2021/10/03 20:51:37;;;;;;;1.97;1.57;;;14.40;98.30;;;;;;5203228;22;20506;-80
2021/10/03 20:53:40;;;;;;;1.80;1.63;;;14.40;98.30;;;;;;5203327;22;20453;-80
2021/10/03 20:55:45;;;;;;;2.20;2.00;;;14.40;98.30;;;;;;5195082;22;20764;-80
2021/10/03 20:57:48;;;;;;;4.27;1.77;;;14.30;98.30;;;;;;5196416;22;20431;-80
2021/10/03 20:59:51;;;;;;;1.97;1.77;;;14.30;98.30;;;;;;5196367;22;20955;-80
2021/10/03 21:01:56;;;;;;;2.53;1.90;;;14.30;98.30;;;;;;5195524;22;20748;-80
2021/10/03 21:04:02;;;;;;;2.90;1.90;;;14.30;98.30;;;;;;5195923;22;20497;-80
2021/10/03 21:06:05;;;;;;;2.10;1.60;;;14.30;98.30;;;;;;5195310;22;20443;-80
2021/10/03 21:08:09;;;;;;;1.73;1.40;;;14.30;98.30;;;;;;5195072;22;20427;-81
2021/10/03 21:10:13;;;;;;;3.13;1.97;;;14.30;98.30;;;;;;5205617;22;20434;-81
2021/10/03 21:12:16;;;;;;;2.30;1.70;;;14.30;98.30;;;;;;5197063;22;20950;-82
2021/10/03 21:14:19;;;;;;;2.57;2.20;;;14.20;98.30;;;;;;5204373;22;20423;-83
2021/10/03 21:16:22;;;;;;;1.83;1.60;;;14.20;98.30;;;;;;5204542;22;20425;-84
2021/10/03 21:18:27;;;;;;;2.80;2.10;;;14.20;98.30;;;;;;5205957;22;20526;-84
2021/10/03 21:20:30;;;;;;;2.30;1.87;;;14.20;98.30;;;;;;5206018;22;20415;-83
2021/10/03 21:22:33;;;;;;;2.27;2.03;;;14.20;98.30;;;;;;5204520;22;20423;-83
2021/10/03 21:24:37;;;;;;;2.00;1.80;;;14.20;98.30;;;;;;5205175;22;20510;-83
2021/10/03 21:26:44;;;;;;;1.90;1.70;;;14.20;98.30;;;;;;5204466;22;20457;-83
2021/10/03 21:28:47;;;;;;;1.83;1.73;;;14.20;98.30;;;;;;5204520;22;20473;-83
2021/10/03 21:30:50;;;;;;;3.40;2.00;;;14.10;98.30;;;;;;5204616;22;20501;-83
2021/10/03 21:32:53;;;;;;;2.67;2.13;;;14.00;98.30;;;;;;5203851;22;20419;-83
2021/10/03 21:34:57;;;;;;;2.03;1.80;;;14.00;98.30;;;;;;5204589;22;20430;-83
2021/10/03 21:37:00;;;;;;;2.10;1.90;;;13.90;98.30;;;;;;5205289;22;20429;-83
2021/10/03 21:39:05;;;;;;;1.90;1.80;;;13.90;98.30;;;;;;5204566;22;20501;-83
2021/10/03 21:41:08;;;;;;;2.20;2.00;;;13.90;98.30;;;;;;5204761;22;20427;-84
2021/10/03 21:43:11;;;;;;;2.20;2.00;;;13.90;98.30;;;;;;5204500;22;21171;-83
2021/10/03 21:45:14;;;;;;;2.20;2.00;;;13.90;98.30;;;;;;5204746;22;20494;-82
2021/10/03 21:47:17;;;;;;;2.77;1.90;;;13.90;98.30;;;;;;5204782;22;20425;-82
2021/10/03 21:49:20;;;;;;;2.20;1.80;;;13.90;98.30;;;;;;5204320;22;20435;-83
2021/10/03 21:51:25;;;;;;;2.57;2.07;;;13.90;98.30;;;;;;5203821;22;20506;-83
2021/10/03 21:53:28;;;;;;;2.20;2.00;;;13.90;98.30;;;;;;5204503;22;20491;-84
2021/10/03 21:55:33;;;;;;;4.63;1.90;;;13.90;98.30;;;;;;5196188;22;20538;-83
2021/10/03 21:57:36;;;;;;;2.00;1.80;;;13.90;98.30;;;;;;5204579;22;20427;-84
2021/10/03 21:59:39;;;;;;;2.00;1.80;;;13.80;98.30;;;;;;5204208;22;20931;-83
2021/10/03 22:01:42;;;;;;;1.90;1.63;;;13.80;98.30;;;;;;5204045;22;20919;-84
2021/10/03 22:03:48;;;;;;;1.87;1.50;;;13.80;98.30;;;;;;5205897;22;20862;-82
2021/10/03 22:05:51;;;;;;;3.70;1.87;;;13.70;98.30;;;;;;5205206;22;20953;-83
2021/10/03 22:07:56;;;;;;;2.43;2.20;;;13.70;98.30;;;;;;5204184;22;20751;-83
2021/10/03 22:09:59;;;;;;;1.90;1.70;;;13.70;98.30;;;;;;5204457;22;20824;-82
2021/10/03 22:12:02;;;;;;;1.87;1.77;;;13.70;98.30;;;;;;5195799;22;20438;-84
2021/10/03 22:14:05;;;;;;;1.93;1.50;;;13.60;98.30;;;;;;5205013;22;20415;-82
2021/10/03 22:16:08;;;;;;;1.73;1.50;;;13.60;98.30;;;;;;5204517;22;20423;-83
2021/10/03 22:18:11;;;;;;;2.00;1.70;;;13.60;98.30;;;;;;5206344;22;20449;-83
2021/10/03 22:20:14;;;;;;;3.60;1.70;;;13.60;98.30;;;;;;5208247;22;20441;-83
2021/10/03 22:22:17;;;;;;;4.93;1.83;;;13.60;98.30;;;;;;5207250;22;20967;-83
2021/10/03 22:24:22;;;;;;;1.97;1.60;;;13.60;98.30;;;;;;5207297;22;20445;-83
2021/10/03 22:26:28;;;;;;;2.37;1.90;;;13.50;98.30;;;;;;5207531;22;20526;-83
2021/10/03 22:28:31;;;;;;;2.13;1.90;;;13.60;98.30;;;;;;5206705;22;20850;-83
2021/10/03 22:30:35;;;;;;;2.03;1.77;;;13.60;98.30;;;;;;5206069;22;20453;-83
2021/10/03 22:32:40;;;;;;;2.23;1.90;;;13.50;98.30;;;;;;5206377;22;20788;-83
2021/10/03 22:34:43;;;;;;;4.23;2.67;;;13.50;98.30;;;;;;5206397;22;20422;-83
2021/10/03 22:36:46;;;;;;;3.20;2.00;;;13.50;98.30;;;;;;5206373;22;20801;-83
2021/10/03 22:38:49;;;;;;;2.20;1.97;;;13.50;98.30;;;;;;5206667;22;20509;-82
2021/10/03 22:40:54;;;;;;;2.37;2.13;;;13.40;98.30;;;;;;5206263;22;20497;-83
2021/10/03 22:42:57;;;;;;;3.40;1.90;;;13.40;98.30;;;;;;5205391;22;20433;-83
2021/10/03 22:45:00;;;;;;;3.40;2.00;;;13.40;98.30;;;;;;5206187;22;20792;-83
2021/10/03 22:47:04;;;;;;;2.53;2.00;;;13.40;98.30;;;;;;5205961;22;20525;-82
2021/10/03 22:49:07;;;;;;;3.00;2.10;;;13.40;98.30;;;;;;5198665;22;20457;-83
2021/10/03 22:51:10;;;;;;;2.40;1.87;;;13.40;98.30;;;;;;5197701;22;20441;-83
2021/10/03 22:53:13;;;;;;;2.37;2.17;;;13.40;98.30;;;;;;5206433;22;20418;-83
2021/10/03 22:55:16;;;;;;;3.67;2.13;;;13.40;98.30;;;;;;5209181;22;20429;-83
2021/10/03 22:57:20;;;;;;;2.33;1.80;;;13.30;98.30;;;;;;5208825;22;20418;-83
2021/10/03 22:59:23;;;;;;;3.60;2.33;;;13.40;98.30;;;;;;5206468;22;20442;-82
2021/10/03 23:01:27;;;;;;;3.57;2.00;;;13.40;98.30;;;;;;5207212;22;20423;-84
2021/10/03 23:03:31;;;;;;;2.80;1.90;;;13.40;98.30;;;;;;5204841;22;20771;-83
2021/10/03 23:05:34;;;;;;;2.03;1.83;;;13.40;98.30;;;;;;5220032;22;20454;-83
2021/10/03 23:07:38;;;;;;;2.27;2.07;;;13.40;98.30;;;;;;5221371;22;20482;-82
2021/10/03 23:09:41;;;;;;;3.23;2.30;;;13.40;98.30;;;;;;5221399;22;20430;-83
2021/10/03 23:11:44;;;;;;;3.13;2.30;;;13.40;98.30;;;;;;5216849;22;20427;-83
2021/10/03 23:13:49;;;;;;;2.47;2.03;;;13.40;98.30;;;;;;5199159;22;20433;-83
2021/10/03 23:15:52;;;;;;;3.17;2.00;;;13.40;98.30;;;;;;5208001;22;20525;-83
2021/10/03 23:17:55;;;;;;;4.40;2.20;;;13.40;98.30;;;;;;5208286;22;20473;-83
2021/10/03 23:19:58;;;;;;;3.17;2.57;;;13.40;98.30;;;;;;5208621;22;20445;-83
2021/10/03 23:22:01;;;;;;;3.80;2.40;;;13.40;98.30;;;;;;5208984;22;20419;-83
2021/10/03 23:24:05;;;;;;;2.90;2.70;;;13.40;98.30;;;;;;5209657;22;20510;-83
2021/10/03 23:26:10;;;;;;;2.23;2.03;;;13.30;98.30;;;;;;5210022;22;20495;-83
2021/10/03 23:28:13;;;;;;;4.23;2.47;;;13.30;98.30;;;;;;5221009;22;20419;-84
2021/10/03 23:30:18;;;;;;;3.47;3.27;;;13.30;98.30;;;;;;5219625;22;20490;-83
2021/10/03 23:32:21;;;;;;;4.93;2.57;;;13.30;98.30;;;;;;5218991;22;20640;-84
2021/10/03 23:34:24;;;;;;;2.60;2.33;;;13.30;98.30;;;;;;5220205;22;20442;-83
2021/10/03 23:36:27;;;;;;;3.93;2.63;;;13.30;98.30;;;;;;5219806;22;20441;-83
2021/10/03 23:38:30;;;;;;;3.80;2.50;;;13.30;98.30;;;;;;5218147;22;20423;-83
2021/10/03 23:40:33;;;;;;;3.40;2.50;;;13.30;98.30;;;;;;5216963;22;20430;-84
2021/10/03 23:42:36;;;;;;;3.70;2.70;;;13.30;98.30;;;;;;5209193;22;20455;-84
2021/10/03 23:44:39;;;;;;;4.17;2.60;;;13.30;98.30;;;;;;5217912;22;20450;-85
2021/10/03 23:46:44;;;;;;;4.43;2.50;;;13.20;98.30;;;;;;5218480;22;20446;-83
2021/10/03 23:48:47;;;;;;;3.03;2.57;;;13.20;98.30;;;;;;5212071;22;20443;-84
2021/10/03 23:50:50;;;;;;;2.73;2.53;;;13.20;98.30;;;;;;5199347;22;20457;-83
2021/10/03 23:52:54;;;;;;;4.53;2.63;;;13.20;98.30;;;;;;5212696;22;20450;-84
2021/10/03 23:54:57;;;;;;;5.10;2.83;;;13.20;98.30;;;;;;5206554;22;20748;-84
2021/10/03 23:57:00;;;;;;;3.17;2.80;;;13.20;98.30;;;;;;5207455;22;20884;-84
2021/10/03 23:59:03;;;;;;;5.83;2.90;;;13.20;98.30;;;;;;5207254;22;20481;-83
